createdAt,value
2022-10-31T00:01:36.935Z,37.30
2022-10-31T00:04:04.823Z,32.00
2022-10-31T00:06:32.180Z,37.30
2022-10-31T00:09:03.079Z,36.08
2022-10-31T00:11:30.536Z,32.03
2022-10-31T00:13:59.512Z,37.05
2022-10-31T00:16:28.272Z,41.63
2022-10-31T00:18:58.464Z,32.65
2022-10-31T00:21:26.546Z,32.35
2022-10-31T00:23:53.609Z,33.10
2022-10-31T00:26:20.795Z,35.60
2022-10-31T00:28:47.953Z,33.63
2022-10-31T00:31:16.216Z,34.88
2022-10-31T00:33:43.435Z,28.33
2022-10-31T00:36:19.575Z,33.47
2022-10-31T00:38:47.928Z,30.95
2022-10-31T00:41:17.319Z,32.53
2022-10-31T00:43:44.977Z,35.42
2022-10-31T00:46:13.688Z,31.40
2022-10-31T00:48:42.748Z,32.30
2022-10-31T00:51:10.422Z,32.92
2022-10-31T00:53:37.481Z,39.10
2022-10-31T00:56:04.894Z,35.30
2022-10-31T00:58:32.151Z,32.03
2022-10-31T01:00:59.039Z,31.75
2022-10-31T01:03:29.022Z,29.85
2022-10-31T01:06:17.633Z,28.42
2022-10-31T01:08:44.654Z,31.35
2022-10-31T01:11:22.361Z,29.25
2022-10-31T01:13:53.201Z,35.47
2022-10-31T01:16:24.183Z,33.17
2022-10-31T01:18:52.284Z,33.40
2022-10-31T01:21:24.000Z,32.63
2022-10-31T01:23:54.270Z,28.30
2022-10-31T01:26:27.856Z,30.73
2022-10-31T01:28:59.443Z,32.45
2022-10-31T01:31:35.179Z,29.40
2022-10-31T01:34:03.327Z,28.42
2022-10-31T01:36:34.044Z,28.15
2022-10-31T01:39:08.672Z,29.92
2022-10-31T01:41:38.986Z,27.67
2022-10-31T01:44:15.077Z,31.05
2022-10-31T01:47:08.725Z,32.38
2022-10-31T01:49:46.004Z,28.33
2022-10-31T01:52:27.308Z,34.05
2022-10-31T01:55:17.091Z,28.17
2022-10-31T01:57:48.612Z,26.88
2022-10-31T02:00:20.934Z,30.30
2022-10-31T02:02:50.451Z,27.45
2022-10-31T02:05:25.881Z,29.98
2022-10-31T02:10:33.036Z,24.00
2022-10-31T02:13:05.631Z,25.63
2022-10-31T02:15:38.644Z,31.13
2022-10-31T02:18:07.049Z,28.15
2022-10-31T02:20:48.694Z,27.67
2022-10-31T02:24:04.783Z,32.20
2022-10-31T02:27:03.787Z,26.17
2022-10-31T02:29:43.059Z,26.40
2022-10-31T02:33:18.507Z,26.35
2022-10-31T02:36:17.602Z,31.92
2022-10-31T02:39:05.048Z,28.75
2022-10-31T02:42:03.963Z,32.53
2022-10-31T02:44:47.241Z,32.65
2022-10-31T02:47:17.986Z,32.10
2022-10-31T02:49:56.673Z,28.48
2022-10-31T02:52:29.596Z,31.58
2022-10-31T02:55:35.014Z,32.85
2022-10-31T02:58:12.849Z,26.60
2022-10-31T03:03:41.389Z,25.95
2022-10-31T03:06:26.066Z,34.15
2022-10-31T03:09:10.292Z,29.98
2022-10-31T03:12:40.255Z,29.85
2022-10-31T03:15:29.918Z,30.05
2022-10-31T03:18:10.754Z,30.58
2022-10-31T03:20:45.896Z,30.80
2022-10-31T03:23:16.839Z,28.83
2022-10-31T03:25:49.439Z,28.20
2022-10-31T03:28:20.287Z,30.88
2022-10-31T03:30:49.330Z,30.40
2022-10-31T03:33:27.506Z,25.95
2022-10-31T03:36:01.033Z,22.00
2022-10-31T03:38:30.794Z,22.23
2022-10-31T03:41:01.318Z,23.48
2022-10-31T03:43:34.308Z,24.27
2022-10-31T03:46:03.011Z,25.60
2022-10-31T03:48:30.097Z,22.85
2022-10-31T03:51:23.515Z,28.60
2022-10-31T03:54:07.175Z,20.15
2022-10-31T03:56:53.444Z,21.85
2022-10-31T03:59:35.282Z,17.73
2022-10-31T04:02:09.691Z,20.73
2022-10-31T04:04:39.163Z,20.92
2022-10-31T04:07:08.025Z,26.33
2022-10-31T04:09:39.797Z,19.67
2022-10-31T04:12:10.069Z,25.52
2022-10-31T04:15:04.446Z,21.15
2022-10-31T04:17:36.194Z,24.95
2022-10-31T04:20:04.100Z,26.95
2022-10-31T04:22:31.681Z,19.70
2022-10-31T04:25:00.545Z,23.02
2022-10-31T04:27:27.492Z,21.85
2022-10-31T04:29:54.395Z,21.10
2022-10-31T04:32:21.211Z,21.70
2022-10-31T04:34:48.178Z,19.08
2022-10-31T04:37:14.979Z,22.55
2022-10-31T04:39:42.035Z,23.40
2022-10-31T04:45:02.369Z,18.25
2022-10-31T04:47:34.395Z,17.50
2022-10-31T04:50:03.084Z,16.95
2022-10-31T04:52:29.938Z,20.35
2022-10-31T04:54:57.730Z,19.92
2022-10-31T04:57:48.942Z,18.55
2022-10-31T05:00:20.890Z,20.70
2022-10-31T05:02:53.801Z,20.67
2022-10-31T05:05:25.594Z,20.25
2022-10-31T05:07:53.706Z,18.60
2022-10-31T05:10:26.130Z,21.05
2022-10-31T05:12:56.875Z,20.17
2022-10-31T05:15:42.518Z,22.08
2022-10-31T05:18:18.087Z,19.23
2022-10-31T05:21:04.551Z,16.10
2022-10-31T05:23:45.915Z,19.27
2022-10-31T05:26:15.951Z,17.10
2022-10-31T05:28:42.810Z,17.05
2022-10-31T05:31:09.804Z,18.63
2022-10-31T05:33:36.675Z,20.33
2022-10-31T05:36:18.522Z,22.85
2022-10-31T05:38:55.173Z,24.75
2022-10-31T05:41:26.756Z,17.77
2022-10-31T05:44:02.704Z,17.77
2022-10-31T05:46:32.043Z,18.23
2022-10-31T05:49:18.368Z,19.02
2022-10-31T05:52:04.027Z,16.20
2022-10-31T05:57:07.455Z,25.10
2022-10-31T05:59:34.655Z,20.55
2022-10-31T06:02:02.287Z,17.88
2022-10-31T06:07:16.671Z,20.50
2022-10-31T06:09:43.892Z,20.42
2022-10-31T06:12:11.405Z,18.88
2022-10-31T06:15:12.619Z,22.30
2022-10-31T06:17:39.594Z,19.23
2022-10-31T06:20:25.278Z,19.30
2022-10-31T06:23:05.218Z,19.25
2022-10-31T06:25:34.160Z,22.48
2022-10-31T06:28:01.179Z,22.17
2022-10-31T06:30:36.879Z,18.80
2022-10-31T06:33:05.840Z,25.30
2022-10-31T06:35:35.507Z,27.35
2022-10-31T06:38:03.588Z,19.20
2022-10-31T06:40:38.299Z,18.88
2022-10-31T06:43:27.364Z,19.15
2022-10-31T06:46:13.094Z,20.52
2022-10-31T06:49:07.763Z,19.30
2022-10-31T06:51:53.975Z,22.83
2022-10-31T06:54:22.495Z,20.25
2022-10-31T06:56:49.827Z,19.25
2022-10-31T06:59:17.331Z,21.33
2022-10-31T07:02:16.833Z,22.30
2022-10-31T07:04:44.215Z,25.55
2022-10-31T07:07:14.454Z,19.92
2022-10-31T07:09:41.943Z,24.42
2022-10-31T07:12:10.926Z,28.20
2022-10-31T07:14:43.353Z,23.40
2022-10-31T07:17:11.096Z,29.10
2022-10-31T07:19:41.872Z,26.27
2022-10-31T07:22:10.425Z,28.98
2022-10-31T07:24:38.660Z,23.92
2022-10-31T07:27:24.415Z,22.50
2022-10-31T07:29:51.928Z,27.48
2022-10-31T07:32:18.793Z,27.90
2022-10-31T07:34:52.483Z,22.90
2022-10-31T07:37:22.414Z,25.75
2022-10-31T07:39:49.302Z,21.92
2022-10-31T07:42:16.875Z,18.05
2022-10-31T07:44:45.556Z,19.25
2022-10-31T07:47:15.352Z,17.98
2022-10-31T07:53:07.659Z,18.13
2022-10-31T07:55:49.308Z,16.30
2022-10-31T07:58:17.935Z,19.95
2022-10-31T08:00:47.699Z,25.85
2022-10-31T08:03:20.265Z,22.35
2022-10-31T08:05:47.345Z,27.67
2022-10-31T08:08:40.519Z,31.63
2022-10-31T08:11:09.252Z,27.65
2022-10-31T08:13:36.083Z,21.08
2022-10-31T08:16:05.622Z,22.75
2022-10-31T08:18:38.339Z,17.45
2022-10-31T08:21:07.124Z,24.58
2022-10-31T08:23:34.033Z,24.23
2022-10-31T08:26:01.622Z,22.88
2022-10-31T08:28:28.482Z,25.77
2022-10-31T08:30:58.381Z,21.90
2022-10-31T08:33:57.356Z,25.80
2022-10-31T08:36:47.216Z,24.85
2022-10-31T08:39:25.114Z,22.30
2022-10-31T08:41:52.071Z,22.92
2022-10-31T08:44:18.965Z,27.73
2022-10-31T08:46:45.973Z,27.17
2022-10-31T08:49:12.966Z,18.67
2022-10-31T08:51:42.767Z,20.15
2022-10-31T08:54:09.802Z,23.90
2022-10-31T08:56:36.626Z,21.40
2022-10-31T08:59:10.466Z,18.08
2022-10-31T09:01:57.748Z,23.85
2022-10-31T09:04:25.477Z,25.85
2022-10-31T09:12:06.271Z,24.42
2022-10-31T09:14:56.276Z,17.63
2022-10-31T09:17:31.425Z,23.23
2022-10-31T09:20:21.183Z,19.33
2022-10-31T09:22:48.365Z,22.40
2022-10-31T09:25:15.511Z,21.42
2022-10-31T09:27:47.721Z,23.48
2022-10-31T09:30:14.753Z,20.70
2022-10-31T09:32:43.897Z,29.63
2022-10-31T09:37:44.155Z,19.02
2022-10-31T09:40:11.555Z,21.20
2022-10-31T09:42:53.484Z,28.55
2022-10-31T09:46:03.522Z,22.60
2022-10-31T09:48:54.526Z,26.40
2022-10-31T09:52:33.950Z,23.65
2022-10-31T09:55:29.020Z,25.23
2022-10-31T09:57:56.529Z,21.65
2022-10-31T10:00:23.767Z,23.67
2022-10-31T10:03:17.879Z,23.30
2022-10-31T10:06:13.747Z,22.00
2022-10-31T10:09:01.703Z,24.48
2022-10-31T10:11:54.568Z,21.50
2022-10-31T10:14:49.576Z,24.30
2022-10-31T10:17:55.301Z,30.63
2022-10-31T10:20:34.983Z,28.20
2022-10-31T10:23:37.636Z,27.95
2022-10-31T10:26:18.633Z,27.05
2022-10-31T10:29:12.577Z,25.30
2022-10-31T10:31:43.644Z,22.77
2022-10-31T10:34:22.208Z,27.45
2022-10-31T10:36:59.129Z,23.23
2022-10-31T10:39:44.627Z,24.30
2022-10-31T10:42:35.437Z,24.52
2022-10-31T10:45:36.139Z,25.10
2022-10-31T10:48:36.702Z,25.63
2022-10-31T10:51:06.251Z,26.80
2022-10-31T10:54:06.566Z,24.70
2022-10-31T10:57:07.121Z,28.00
2022-10-31T10:59:35.624Z,26.73
2022-10-31T11:02:04.831Z,24.50
2022-10-31T11:04:39.575Z,30.65
2022-10-31T11:07:13.091Z,25.02
2022-10-31T11:09:40.382Z,27.70
2022-10-31T11:12:17.608Z,30.60
2022-10-31T11:14:53.376Z,33.13
2022-10-31T11:17:35.556Z,34.17
2022-10-31T11:20:05.680Z,28.65
2022-10-31T11:22:32.787Z,22.33
2022-10-31T11:24:59.697Z,24.23
2022-10-31T11:27:27.436Z,27.75
2022-10-31T11:30:05.053Z,30.40
2022-10-31T11:32:32.767Z,26.70
2022-10-31T11:35:10.775Z,24.60
2022-10-31T11:37:44.292Z,22.88
2022-10-31T11:40:23.950Z,27.50
2022-10-31T11:42:54.942Z,26.65
2022-10-31T11:45:24.789Z,23.20
2022-10-31T11:47:59.601Z,27.73
2022-10-31T11:50:42.856Z,27.93
2022-10-31T11:53:21.467Z,23.63
2022-10-31T11:56:05.152Z,34.65
2022-10-31T11:58:32.545Z,32.00
2022-10-31T12:00:59.429Z,27.23
2022-10-31T12:03:55.520Z,23.67
2022-10-31T12:06:34.070Z,29.30
2022-10-31T12:09:02.354Z,21.35
2022-10-31T12:12:12.659Z,26.00
2022-10-31T12:15:34.761Z,28.48
2022-10-31T12:18:52.144Z,18.48
2022-10-31T12:21:43.940Z,25.50
2022-10-31T12:24:49.508Z,20.58
2022-10-31T12:27:24.093Z,21.35
2022-10-31T12:30:01.953Z,21.90
2022-10-31T12:32:43.258Z,25.65
2022-10-31T12:35:36.492Z,19.77
2022-10-31T12:38:47.136Z,25.88
2022-10-31T12:41:28.455Z,19.27
2022-10-31T12:44:23.866Z,24.92
2022-10-31T12:47:15.542Z,22.38
2022-10-31T12:50:14.103Z,26.38
2022-10-31T12:53:22.025Z,21.55
2022-10-31T12:56:09.400Z,24.20
2022-10-31T12:58:40.442Z,26.00
2022-10-31T13:01:16.008Z,22.65
2022-10-31T13:04:03.944Z,27.20
2022-10-31T13:06:44.485Z,24.13
2022-10-31T13:09:19.404Z,23.65
2022-10-31T13:11:54.560Z,25.92
2022-10-31T13:14:56.442Z,22.73
2022-10-31T13:17:34.388Z,27.10
2022-10-31T13:20:19.120Z,26.02
2022-10-31T13:22:51.545Z,37.45
2022-10-31T13:25:31.187Z,26.40
2022-10-31T13:28:04.274Z,24.13
2022-10-31T13:30:37.987Z,31.88
2022-10-31T13:33:16.522Z,28.40
2022-10-31T13:35:57.296Z,25.83
2022-10-31T13:38:58.812Z,24.77
2022-10-31T13:41:45.511Z,23.27
2022-10-31T13:44:26.011Z,21.52
2022-10-31T13:46:58.725Z,26.95
2022-10-31T13:49:31.888Z,29.75
2022-10-31T13:52:13.879Z,25.98
2022-10-31T13:54:52.766Z,25.52
2022-10-31T13:57:44.930Z,23.52
2022-10-31T14:00:21.572Z,26.48
2022-10-31T14:02:52.441Z,27.55
2022-10-31T14:05:35.480Z,24.40
2022-10-31T14:08:19.282Z,22.88
2022-10-31T14:10:53.103Z,27.15
2022-10-31T14:13:38.283Z,27.80
2022-10-31T14:16:08.357Z,31.63
2022-10-31T14:18:39.841Z,32.47
2022-10-31T14:21:32.706Z,34.35
2022-10-31T14:23:59.696Z,27.45
2022-10-31T14:26:29.387Z,29.20
2022-10-31T14:29:33.735Z,29.35
2022-10-31T14:32:13.695Z,26.92
2022-10-31T14:34:56.185Z,28.65
2022-10-31T14:38:03.035Z,30.75
2022-10-31T14:41:05.535Z,33.05
2022-10-31T14:43:54.057Z,28.77
2022-10-31T14:46:45.917Z,30.30
2022-10-31T14:49:50.969Z,27.05
2022-10-31T14:52:20.619Z,30.50
2022-10-31T14:54:54.787Z,24.42
2022-10-31T14:57:29.215Z,26.60
2022-10-31T15:00:21.350Z,27.42
2022-10-31T15:03:28.288Z,28.30
2022-10-31T15:05:59.750Z,25.17
2022-10-31T15:08:46.393Z,30.77
2022-10-31T15:11:28.435Z,30.38
2022-10-31T15:13:59.537Z,25.17
2022-10-31T15:16:40.701Z,36.80
2022-10-31T15:19:11.993Z,34.72
2022-10-31T15:21:48.553Z,25.77
2022-10-31T15:24:18.362Z,27.40
2022-10-31T15:26:56.959Z,30.25
2022-10-31T15:29:28.023Z,32.55
2022-10-31T15:32:01.057Z,32.28
2022-10-31T15:34:39.331Z,32.42
2022-10-31T15:37:15.706Z,35.53
2022-10-31T15:42:29.590Z,29.13
2022-10-31T15:45:06.453Z,29.58
2022-10-31T15:47:34.469Z,28.15
2022-10-31T15:50:05.023Z,27.30
2022-10-31T15:52:45.209Z,31.25
2022-10-31T15:55:25.272Z,31.42
2022-10-31T15:58:05.278Z,27.67
2022-10-31T16:00:39.203Z,50.58
2022-10-31T16:03:15.506Z,38.53
2022-10-31T16:05:55.816Z,40.60
2022-10-31T16:08:32.028Z,38.67
2022-10-31T16:11:08.726Z,32.22
2022-10-31T16:14:00.693Z,37.28
2022-10-31T16:16:35.092Z,36.05
2022-10-31T16:19:05.839Z,37.13
2022-10-31T16:21:37.254Z,33.80
2022-10-31T16:24:30.448Z,35.08
2022-10-31T16:27:26.539Z,37.22
2022-10-31T16:29:54.221Z,32.85
2022-10-31T16:32:33.719Z,48.25
2022-10-31T16:35:12.698Z,36.05
2022-10-31T16:37:43.245Z,44.00
2022-10-31T16:40:15.406Z,34.03
2022-10-31T16:42:43.836Z,37.40
2022-10-31T16:45:23.823Z,45.22
2022-10-31T16:47:51.955Z,40.45
2022-10-31T16:50:24.074Z,42.65
2022-10-31T16:53:12.956Z,47.60
2022-10-31T16:58:20.213Z,42.55
2022-10-31T17:00:47.948Z,43.53
2022-10-31T17:03:15.003Z,35.78
2022-10-31T17:05:42.021Z,39.95
2022-10-31T17:08:09.465Z,36.42
2022-10-31T17:10:36.958Z,38.10
2022-10-31T17:13:07.388Z,35.33
2022-10-31T17:15:45.839Z,44.78
2022-10-31T17:18:17.170Z,36.00
2022-10-31T17:20:45.360Z,41.15
2022-10-31T17:23:15.057Z,42.10
2022-10-31T17:25:42.709Z,43.20
2022-10-31T17:28:13.913Z,46.10
2022-10-31T17:30:44.163Z,40.90
2022-10-31T17:33:17.035Z,49.80
2022-10-31T17:35:44.889Z,42.00
2022-10-31T17:38:12.780Z,41.22
2022-10-31T17:40:44.320Z,50.30
2022-10-31T17:43:12.064Z,47.63
2022-10-31T17:45:41.523Z,39.70
2022-10-31T17:48:12.778Z,52.88
2022-10-31T17:50:40.084Z,47.70
2022-10-31T17:53:06.886Z,45.88
2022-10-31T17:55:37.134Z,45.28
2022-10-31T17:58:05.484Z,52.83
2022-10-31T18:00:33.143Z,47.58
2022-10-31T18:03:03.000Z,48.10
2022-10-31T18:05:30.305Z,47.95
2022-10-31T18:08:02.499Z,51.65
2022-10-31T18:10:31.315Z,47.83
2022-10-31T18:12:58.358Z,49.97
2022-10-31T18:15:25.563Z,49.67
2022-10-31T18:17:52.531Z,48.88
2022-10-31T18:20:19.423Z,45.33
2022-10-31T18:22:46.277Z,47.08
2022-10-31T18:25:13.650Z,48.13
2022-10-31T18:27:40.449Z,43.35
2022-10-31T18:30:08.336Z,50.45
2022-10-31T18:32:36.426Z,47.40
2022-10-31T18:35:03.427Z,49.35
2022-10-31T18:37:30.241Z,46.78
2022-10-31T18:39:57.558Z,48.72
2022-10-31T18:42:24.379Z,47.40
2022-10-31T18:44:51.531Z,53.03
2022-10-31T18:47:19.298Z,51.83
2022-10-31T18:49:46.187Z,43.22
2022-10-31T18:52:12.985Z,44.60
2022-10-31T18:54:40.261Z,43.70
2022-10-31T18:57:07.200Z,46.97
2022-10-31T18:59:34.092Z,48.55
2022-10-31T19:02:01.369Z,42.15
2022-10-31T19:04:28.258Z,51.72
2022-10-31T19:06:55.998Z,45.20
2022-10-31T19:09:24.388Z,45.92
2022-10-31T19:11:51.200Z,50.15
2022-10-31T19:14:18.195Z,51.00
2022-10-31T19:16:45.255Z,56.72
2022-10-31T19:19:12.236Z,48.30
2022-10-31T19:21:39.046Z,41.67
2022-10-31T19:24:06.975Z,44.78
2022-10-31T19:26:34.893Z,45.05
2022-10-31T19:29:01.956Z,44.03
2022-10-31T19:31:29.401Z,47.50
2022-10-31T19:33:56.301Z,39.35
2022-10-31T19:36:23.829Z,39.03
2022-10-31T19:38:53.253Z,42.38
2022-10-31T19:41:24.603Z,47.20
2022-10-31T19:43:52.615Z,44.80
2022-10-31T19:46:40.540Z,45.60
2022-10-31T19:49:10.422Z,46.15
2022-10-31T19:51:37.557Z,44.75
2022-10-31T19:54:04.502Z,48.25
2022-10-31T19:56:31.302Z,50.75
2022-10-31T19:59:02.891Z,49.97
2022-10-31T20:01:30.409Z,45.17
2022-10-31T20:03:57.309Z,39.33
2022-10-31T20:06:35.178Z,49.92
2022-10-31T20:09:08.077Z,46.13
2022-10-31T20:11:37.495Z,58.67
2022-10-31T20:14:05.083Z,48.83
2022-10-31T20:16:32.500Z,43.70
2022-10-31T20:18:59.837Z,40.38
2022-10-31T20:21:29.641Z,46.35
2022-10-31T20:24:02.808Z,39.83
2022-10-31T20:26:32.016Z,38.60
2022-10-31T20:29:00.643Z,41.75
2022-10-31T20:31:32.416Z,44.22
2022-10-31T20:33:59.459Z,43.58
2022-10-31T20:36:28.630Z,48.35
2022-10-31T20:38:55.895Z,50.58
2022-10-31T20:41:22.745Z,44.55
2022-10-31T20:43:49.742Z,43.17
2022-10-31T20:46:23.403Z,42.00
2022-10-31T20:48:51.093Z,39.17
2022-10-31T20:51:24.232Z,35.75
2022-10-31T20:53:53.175Z,40.90
2022-10-31T20:56:23.451Z,35.90
2022-10-31T20:58:51.721Z,37.78
2022-10-31T21:01:25.418Z,35.42
2022-10-31T21:03:53.104Z,34.53
2022-10-31T21:06:21.327Z,32.45
2022-10-31T21:08:48.225Z,36.55
2022-10-31T21:11:20.267Z,35.00
2022-10-31T21:13:48.804Z,33.53
2022-10-31T21:16:28.919Z,37.97
2022-10-31T21:18:56.023Z,39.47
2022-10-31T21:21:32.101Z,36.45
2022-10-31T21:24:15.116Z,30.02
2022-10-31T21:26:45.980Z,32.08
2022-10-31T21:29:14.254Z,32.88
2022-10-31T21:31:42.520Z,31.17
2022-10-31T21:34:09.491Z,34.55
2022-10-31T21:36:37.062Z,31.20
2022-10-31T21:39:06.604Z,32.70
2022-10-31T21:41:33.926Z,31.85
2022-10-31T21:44:01.063Z,32.42
2022-10-31T21:46:31.199Z,33.45
2022-10-31T21:48:58.581Z,40.88
2022-10-31T21:51:29.617Z,35.15
2022-10-31T21:54:15.938Z,30.83
2022-10-31T21:56:43.548Z,34.70
2022-10-31T21:59:10.659Z,30.83
2022-10-31T22:01:38.220Z,27.73
2022-10-31T22:04:06.350Z,32.50
2022-10-31T22:06:33.451Z,34.85
2022-10-31T22:09:03.109Z,35.28
2022-10-31T22:11:30.738Z,33.30
2022-10-31T22:14:00.044Z,33.95
2022-10-31T22:16:30.146Z,33.63
2022-10-31T22:19:00.126Z,30.67
2022-10-31T22:21:28.416Z,32.53
2022-10-31T22:24:01.883Z,31.58
2022-10-31T22:26:32.563Z,34.15
2022-10-31T22:29:00.713Z,34.63
2022-10-31T22:31:30.007Z,37.70
2022-10-31T22:33:57.461Z,35.30
2022-10-31T22:36:28.442Z,38.20
2022-10-31T22:38:55.816Z,36.33
2022-10-31T22:41:26.303Z,37.35
2022-10-31T22:43:55.311Z,40.45
2022-10-31T22:46:34.732Z,38.67
2022-10-31T22:49:06.610Z,48.05
2022-10-31T22:51:37.697Z,39.63
2022-10-31T22:54:07.670Z,64.80
2022-10-31T22:56:35.509Z,95.55
2022-10-31T22:59:03.146Z,106.22
2022-10-31T23:01:33.022Z,126.72
2022-10-31T23:04:00.862Z,115.85
2022-10-31T23:06:30.826Z,102.78
2022-10-31T23:09:01.457Z,133.30
2022-10-31T23:11:33.449Z,132.85
2022-10-31T23:14:10.843Z,115.78
2022-10-31T23:16:47.692Z,87.82
2022-10-31T23:19:20.529Z,94.35
2022-10-31T23:22:01.996Z,156.05
2022-10-31T23:24:43.916Z,132.85
2022-10-31T23:27:19.296Z,163.13
2022-10-31T23:29:54.612Z,135.18
2022-10-31T23:32:37.115Z,104.95
2022-10-31T23:35:10.282Z,76.30
2022-10-31T23:37:38.531Z,106.32
2022-10-31T23:40:08.602Z,71.63
2022-10-31T23:42:36.086Z,62.63
2022-10-31T23:45:03.349Z,79.45
2022-10-31T23:47:30.321Z,57.92
2022-10-31T23:49:57.194Z,79.35
2022-10-31T23:52:24.153Z,88.32
2022-10-31T23:54:50.983Z,53.45
2022-10-31T23:57:18.344Z,85.97
2022-10-31T23:59:45.452Z,44.72
